Time;durP1;ratioP1;P1;durP2;ratioP2;P2;SDS_P1;SDS_P2;PMS_P1;PMS_P2;Temp;Humidity;BMP_temperature;BMP_pressure;BME280_temperature;BME280_humidity;BME280_pressure;Samples;Min_cycle;Max_cycle;Signal;HPM_P1;HPM_P2
2023/08/05 00:01:29;;;;;;;6.32;2.90;;;;;;;;;;5080088;28;20759;-86
2023/08/05 00:03:58;;;;;;;3.75;3.55;;;;;;;;;;5089155;28;20198;-86
2023/08/05 00:06:24;;;;;;;4.05;3.20;;;;;;;;;;5091971;28;20333;-87
2023/08/05 00:08:51;;;;;;;6.10;3.33;;;;;;;;;;5091034;28;20205;-85
2023/08/05 00:11:18;;;;;;;4.20;3.10;;;;;;;;;;5090675;28;20201;-86
2023/08/05 00:13:45;;;;;;;3.10;2.90;;;;;;;;;;5090362;28;20234;-86
2023/08/05 00:16:14;;;;;;;3.28;3.08;;;;;;;;;;5090879;28;20212;-87
2023/08/05 00:18:40;;;;;;;2.80;2.58;;;;;;;;;;5090619;28;20624;-87
2023/08/05 00:21:09;;;;;;;3.17;2.97;;;;;;;;;;5091548;28;20213;-86
2023/08/05 00:23:36;;;;;;;3.42;3.25;;;;;;;;;;5090864;28;20202;-86
2023/08/05 00:26:03;;;;;;;3.70;3.50;;;;;;;;;;5090169;28;20229;-86
2023/08/05 00:28:29;;;;;;;3.35;3.10;;;;;;;;;;5089326;28;20198;-86
2023/08/05 00:30:57;;;;;;;3.78;3.58;;;;;;;;;;5086566;28;20302;-87
2023/08/05 00:33:25;;;;;;;3.33;3.13;;;;;;;;;;5069921;28;20286;-88
2023/08/05 00:35:52;;;;;;;3.95;3.65;;;;;;;;;;5070924;28;20313;-89
2023/08/05 00:38:20;;;;;;;3.55;3.30;;;;;;;;;;5070313;28;20201;-87
2023/08/05 00:40:46;;;;;;;3.47;3.17;;;;;;;;;;5069897;28;20195;-86
2023/08/05 00:43:13;;;;;;;3.45;3.13;;;;;;;;;;5069727;28;20211;-86
2023/08/05 00:45:41;;;;;;;3.60;3.40;;;;;;;;;;5070694;28;20198;-86
2023/08/05 00:48:08;;;;;;;3.30;3.17;;;;;;;;;;5070094;28;20206;-86
2023/08/05 00:50:36;;;;;;;3.45;3.20;;;;;;;;;;5070310;28;20198;-86
2023/08/05 00:53:03;;;;;;;3.90;3.60;;;;;;;;;;5070215;28;20199;-88
2023/08/05 00:55:30;;;;;;;5.35;3.10;;;;;;;;;;5069653;28;20321;-87
2023/08/05 00:57:57;;;;;;;5.57;4.32;;;;;;;;;;5069868;28;20240;-87
2023/08/05 01:00:26;;;;;;;3.97;3.75;;;;;;;;;;5070323;28;20199;-87
2023/08/05 01:02:53;;;;;;;3.60;3.45;;;;;;;;;;5069705;28;20295;-88
2023/08/05 01:05:21;;;;;;;5.80;3.40;;;;;;;;;;5070609;28;20206;-86
2023/08/05 01:07:50;;;;;;;3.60;3.30;;;;;;;;;;5070130;28;20195;-86
2023/08/05 01:10:18;;;;;;;3.70;3.40;;;;;;;;;;5069367;28;20199;-89
2023/08/05 01:12:45;;;;;;;4.22;3.22;;;;;;;;;;5069819;28;20225;-87
2023/08/05 01:15:13;;;;;;;3.55;3.25;;;;;;;;;;5069899;28;20249;-87
2023/08/05 01:17:40;;;;;;;3.85;3.40;;;;;;;;;;5068683;28;20203;-86
2023/08/05 01:20:09;;;;;;;3.15;2.97;;;;;;;;;;5069444;28;20207;-87
2023/08/05 01:22:39;;;;;;;3.63;3.33;;;;;;;;;;5069435;28;20571;-87
2023/08/05 01:25:12;;;;;;;3.67;3.38;;;;;;;;;;5069135;28;20303;-87
2023/08/05 01:27:41;;;;;;;4.82;3.60;;;;;;;;;;5069024;28;20198;-87
2023/08/05 01:30:08;;;;;;;4.22;3.65;;;;;;;;;;5069356;28;20676;-87
2023/08/05 01:32:36;;;;;;;3.67;3.40;;;;;;;;;;5070063;28;20206;-87
2023/08/05 01:35:02;;;;;;;3.75;3.55;;;;;;;;;;5069171;28;20241;-86
2023/08/05 01:37:29;;;;;;;4.15;3.60;;;;;;;;;;5070130;28;20198;-86
2023/08/05 01:39:56;;;;;;;7.47;3.80;;;;;;;;;;5070099;28;20252;-86
2023/08/05 01:42:23;;;;;;;3.60;3.30;;;;;;;;;;5069632;28;20217;-87
2023/08/05 01:44:51;;;;;;;3.83;3.53;;;;;;;;;;5070621;28;20194;-87
2023/08/05 01:47:18;;;;;;;3.55;3.25;;;;;;;;;;5069373;28;20665;-86
2023/08/05 01:49:45;;;;;;;6.63;3.10;;;;;;;;;;5075376;28;20201;-87
2023/08/05 01:52:17;;;;;;;5.55;3.53;;;;;;;;;;5070175;28;20214;-87
2023/08/05 01:54:44;;;;;;;3.72;3.38;;;;;;;;;;5070219;28;20718;-87
2023/08/05 01:57:11;;;;;;;5.57;3.97;;;;;;;;;;5070723;28;20640;-86
2023/08/05 01:59:38;;;;;;;3.78;3.47;;;;;;;;;;5086255;28;20195;-88
2023/08/05 02:02:07;;;;;;;4.45;3.70;;;;;;;;;;5089752;28;20278;-87
2023/08/05 02:04:33;;;;;;;3.83;3.63;;;;;;;;;;5070803;28;20272;-88
2023/08/05 02:07:01;;;;;;;4.18;3.97;;;;;;;;;;5070612;28;20199;-89
2023/08/05 02:09:28;;;;;;;4.25;3.85;;;;;;;;;;5069424;28;20206;-89
2023/08/05 02:11:54;;;;;;;3.95;3.75;;;;;;;;;;5073259;28;20218;-87
2023/08/05 02:14:21;;;;;;;4.45;3.60;;;;;;;;;;5073796;28;20287;-86
2023/08/05 02:16:48;;;;;;;4.35;3.97;;;;;;;;;;5074316;28;20294;-87
2023/08/05 02:19:16;;;;;;;4.20;3.78;;;;;;;;;;5073963;28;20626;-87
2023/08/05 02:21:43;;;;;;;3.70;3.50;;;;;;;;;;5075897;28;20277;-88
2023/08/05 02:24:11;;;;;;;4.00;3.70;;;;;;;;;;5083769;28;20213;-89
2023/08/05 02:26:37;;;;;;;4.47;4.18;;;;;;;;;;5096355;28;20272;-88
2023/08/05 02:29:04;;;;;;;3.97;3.42;;;;;;;;;;5094918;28;20187;-87
2023/08/05 02:31:31;;;;;;;4.03;3.72;;;;;;;;;;5094549;28;20198;-87
2023/08/05 02:33:58;;;;;;;4.60;4.20;;;;;;;;;;5081570;28;20400;-86
2023/08/05 02:36:27;;;;;;;4.50;4.15;;;;;;;;;;5072419;28;20644;-87
2023/08/05 02:38:54;;;;;;;4.50;4.25;;;;;;;;;;5073901;28;20283;-87
2023/08/05 02:41:21;;;;;;;4.43;4.18;;;;;;;;;;5073797;28;20195;-87
2023/08/05 02:43:47;;;;;;;4.25;3.97;;;;;;;;;;5073953;28;20206;-86
2023/08/05 02:46:14;;;;;;;4.20;3.90;;;;;;;;;;5073410;28;20191;-87
2023/08/05 02:48:41;;;;;;;4.55;4.25;;;;;;;;;;5073128;28;20203;-87
2023/08/05 02:51:08;;;;;;;4.35;3.95;;;;;;;;;;5071890;28;20221;-87
2023/08/05 02:53:36;;;;;;;4.30;3.85;;;;;;;;;;5073264;28;20210;-86
2023/08/05 02:56:03;;;;;;;3.63;3.33;;;;;;;;;;5072999;28;20234;-87
2023/08/05 02:58:30;;;;;;;3.72;3.42;;;;;;;;;;5072030;28;20195;-89
2023/08/05 03:01:06;;;;;;;4.03;3.60;;;;;;;;;;5073049;28;20207;-87
2023/08/05 03:03:33;;;;;;;4.53;4.22;;;;;;;;;;5072908;28;20195;-87
2023/08/05 03:06:03;;;;;;;4.35;4.05;;;;;;;;;;5072697;28;20194;-87
2023/08/05 03:08:30;;;;;;;4.72;4.22;;;;;;;;;;5073494;28;20454;-87
2023/08/05 03:10:59;;;;;;;4.00;3.70;;;;;;;;;;5072402;28;20205;-88
2023/08/05 03:13:26;;;;;;;4.57;4.28;;;;;;;;;;5072740;28;20218;-87
2023/08/05 03:15:54;;;;;;;4.45;4.07;;;;;;;;;;5073172;28;20760;-87
2023/08/05 03:18:21;;;;;;;4.55;4.15;;;;;;;;;;5073099;28;20217;-87
2023/08/05 03:20:49;;;;;;;4.90;4.45;;;;;;;;;;5072464;28;20249;-87
2023/08/05 03:23:15;;;;;;;5.20;4.22;;;;;;;;;;5072927;28;20282;-87
2023/08/05 03:25:43;;;;;;;4.70;4.03;;;;;;;;;;5072090;28;20231;-87
2023/08/05 03:28:12;;;;;;;4.35;3.95;;;;;;;;;;5072005;28;20203;-87
2023/08/05 03:30:39;;;;;;;5.53;4.97;;;;;;;;;;5074490;28;20686;-87
2023/08/05 03:33:06;;;;;;;4.63;4.18;;;;;;;;;;5073523;28;20207;-88
2023/08/05 03:35:33;;;;;;;4.35;3.95;;;;;;;;;;5072671;28;20266;-87
2023/08/05 03:38:00;;;;;;;5.05;4.60;;;;;;;;;;5072723;28;20667;-88
2023/08/05 03:40:27;;;;;;;4.93;4.53;;;;;;;;;;5071384;28;20210;-86
2023/08/05 03:42:53;;;;;;;4.43;4.00;;;;;;;;;;5073026;28;20249;-86
2023/08/05 03:45:21;;;;;;;4.60;4.22;;;;;;;;;;5072158;28;20198;-86
2023/08/05 03:47:51;;;;;;;4.65;4.35;;;;;;;;;;5065679;28;20654;-87
2023/08/05 03:50:18;;;;;;;5.32;4.90;;;;;;;;;;5079512;28;20205;-86
2023/08/05 03:52:45;;;;;;;4.72;4.40;;;;;;;;;;5080517;28;20203;-87
2023/08/05 03:55:19;;;;;;;5.45;5.05;;;;;;;;;;5083280;28;20240;-87
2023/08/05 03:57:48;;;;;;;5.95;5.10;;;;;;;;;;5073827;28;20267;-86
2023/08/05 04:00:17;;;;;;;5.40;4.32;;;;;;;;;;5080609;28;20733;-86
2023/08/05 04:02:46;;;;;;;4.95;4.65;;;;;;;;;;5083439;28;20207;-88
2023/08/05 04:05:12;;;;;;;5.35;4.85;;;;;;;;;;5083551;28;20221;-86
2023/08/05 04:07:40;;;;;;;4.50;4.10;;;;;;;;;;5081528;28;20283;-87
2023/08/05 04:10:07;;;;;;;5.75;5.13;;;;;;;;;;5078323;28;20206;-88
2023/08/05 04:12:35;;;;;;;4.28;3.97;;;;;;;;;;5091305;28;20729;-86
2023/08/05 04:15:03;;;;;;;6.35;4.40;;;;;;;;;;5090971;28;20256;-87
2023/08/05 04:17:29;;;;;;;5.50;4.60;;;;;;;;;;5090637;28;20678;-85
2023/08/05 04:20:00;;;;;;;5.63;5.10;;;;;;;;;;5091437;28;20198;-87
2023/08/05 04:22:27;;;;;;;4.65;4.28;;;;;;;;;;5090674;28;20263;-86
2023/08/05 04:24:54;;;;;;;4.85;4.65;;;;;;;;;;5090766;28;20303;-87
2023/08/05 04:27:21;;;;;;;4.40;4.10;;;;;;;;;;5091570;28;20211;-86
2023/08/05 04:29:48;;;;;;;4.53;4.22;;;;;;;;;;5091057;28;20206;-86
2023/08/05 04:32:15;;;;;;;5.10;4.75;;;;;;;;;;5077934;28;20211;-86
2023/08/05 04:34:43;;;;;;;5.22;4.82;;;;;;;;;;5081409;28;20698;-86
2023/08/05 04:37:17;;;;;;;5.13;4.63;;;;;;;;;;5083564;28;20202;-86
2023/08/05 04:39:44;;;;;;;5.03;4.63;;;;;;;;;;5083555;28;20686;-86
2023/08/05 04:42:12;;;;;;;5.88;5.28;;;;;;;;;;5079381;28;20233;-85
2023/08/05 04:44:43;;;;;;;4.88;4.57;;;;;;;;;;5078467;28;20219;-86
2023/08/05 04:47:12;;;;;;;5.05;4.70;;;;;;;;;;5067418;28;20272;-85
2023/08/05 04:49:40;;;;;;;4.82;4.45;;;;;;;;;;5050274;28;20745;-86
2023/08/05 04:52:08;;;;;;;4.72;4.35;;;;;;;;;;5050502;28;20203;-86
2023/08/05 04:54:38;;;;;;;4.85;4.55;;;;;;;;;;5051110;28;20244;-85
2023/08/05 04:57:05;;;;;;;5.72;4.18;;;;;;;;;;5052211;28;20297;-86
2023/08/05 04:59:33;;;;;;;4.65;4.28;;;;;;;;;;5053065;28;20290;-85
2023/08/05 05:02:00;;;;;;;4.05;3.85;;;;;;;;;;5067558;28;20198;-88
2023/08/05 05:04:27;;;;;;;3.97;3.67;;;;;;;;;;5073312;28;20218;-86
2023/08/05 05:06:54;;;;;;;3.10;3.00;;;;;;;;;;5071640;28;20253;-86
2023/08/05 05:09:21;;;;;;;3.15;3.05;;;;;;;;;;5071099;28;20194;-88
2023/08/05 05:11:53;;;;;;;3.38;3.08;;;;;;;;;;5056142;28;20809;-87
2023/08/05 05:14:20;;;;;;;3.20;3.10;;;;;;;;;;5057882;28;20210;-87
2023/08/05 05:16:47;;;;;;;6.45;3.15;;;;;;;;;;5088345;28;20221;-88
2023/08/05 05:19:15;;;;;;;2.78;2.67;;;;;;;;;;5094672;28;20197;-88
2023/08/05 05:21:42;;;;;;;3.22;3.03;;;;;;;;;;5091468;28;20197;-88
2023/08/05 05:24:09;;;;;;;3.83;3.55;;;;;;;;;;5089769;28;20266;-86
2023/08/05 05:26:36;;;;;;;3.05;2.85;;;;;;;;;;5065743;28;20310;-87
2023/08/05 05:29:04;;;;;;;3.10;2.90;;;;;;;;;;5050119;28;20233;-87
2023/08/05 05:31:32;;;;;;;3.53;3.33;;;;;;;;;;5048432;28;20206;-87
2023/08/05 05:33:59;;;;;;;2.95;2.85;;;;;;;;;;5048600;28;20226;-87
2023/08/05 05:36:29;;;;;;;3.42;3.30;;;;;;;;;;5048975;28;20231;-87
2023/08/05 05:38:58;;;;;;;2.97;2.88;;;;;;;;;;5048422;28;20209;-85
2023/08/05 05:41:26;;;;;;;3.35;3.20;;;;;;;;;;5049260;28;20202;-86
2023/08/05 05:43:55;;;;;;;3.53;3.22;;;;;;;;;;5048796;28;20194;-85
2023/08/05 05:46:28;;;;;;;6.82;3.40;;;;;;;;;;5053688;28;20274;-88
2023/08/05 05:49:01;;;;;;;3.13;3.03;;;;;;;;;;5068796;28;20190;-89
2023/08/05 05:51:28;;;;;;;3.22;3.10;;;;;;;;;;5067725;28;20225;-85
2023/08/05 05:53:55;;;;;;;3.75;3.45;;;;;;;;;;5070440;28;20297;-85
2023/08/05 05:56:22;;;;;;;3.47;3.38;;;;;;;;;;5074821;28;20221;-86
2023/08/05 05:58:50;;;;;;;3.40;3.20;;;;;;;;;;5075393;28;20611;-86
2023/08/05 06:01:17;;;;;;;4.03;3.55;;;;;;;;;;5068895;28;20635;-87
2023/08/05 06:03:46;;;;;;;6.72;3.38;;;;;;;;;;5069053;28;20216;-86
2023/08/05 06:06:13;;;;;;;3.45;3.35;;;;;;;;;;5069469;28;20198;-87
2023/08/05 06:08:39;;;;;;;4.20;4.00;;;;;;;;;;5069718;28;20268;-86
2023/08/05 06:11:07;;;;;;;3.70;3.40;;;;;;;;;;5068552;28;20307;-86
2023/08/05 06:13:34;;;;;;;3.10;2.90;;;;;;;;;;5068678;28;20593;-87
2023/08/05 06:16:00;;;;;;;3.50;3.30;;;;;;;;;;5067744;28;20613;-87
2023/08/05 06:18:27;;;;;;;3.28;3.17;;;;;;;;;;5069402;28;20578;-87
2023/08/05 06:20:55;;;;;;;3.72;3.53;;;;;;;;;;5069095;28;20228;-86
2023/08/05 06:23:22;;;;;;;3.90;3.72;;;;;;;;;;5069097;28;20194;-87
2023/08/05 06:25:51;;;;;;;3.35;3.20;;;;;;;;;;5069388;28;20241;-85
2023/08/05 06:28:18;;;;;;;3.97;3.67;;;;;;;;;;5069271;28;20210;-86
2023/08/05 06:30:45;;;;;;;3.90;3.60;;;;;;;;;;5070768;28;20221;-87
2023/08/05 06:33:11;;;;;;;3.53;3.33;;;;;;;;;;5075668;28;20265;-86
2023/08/05 06:35:38;;;;;;;3.65;3.55;;;;;;;;;;5075678;28;20230;-86
2023/08/05 06:38:07;;;;;;;3.70;3.60;;;;;;;;;;5090513;28;20195;-86
2023/08/05 06:40:47;;;;;;;4.00;3.67;;;;;;;;;;5090515;28;20203;-86
2023/08/05 06:43:17;;;;;;;3.50;3.20;;;;;;;;;;5071715;28;20667;-86
2023/08/05 06:45:44;;;;;;;3.50;3.25;;;;;;;;;;5069125;28;20202;-87
2023/08/05 06:48:11;;;;;;;3.47;3.38;;;;;;;;;;5069403;28;20263;-85
2023/08/05 06:50:37;;;;;;;3.53;3.33;;;;;;;;;;5068549;28;20205;-87
2023/08/05 06:53:04;;;;;;;3.38;3.17;;;;;;;;;;5069315;28;20647;-86
2023/08/05 06:55:33;;;;;;;3.92;3.63;;;;;;;;;;5069133;28;20252;-87
2023/08/05 06:58:00;;;;;;;6.78;3.53;;;;;;;;;;5072403;28;20590;-87
2023/08/05 07:00:28;;;;;;;3.80;3.60;;;;;;;;;;5072687;28;20275;-87
2023/08/05 07:02:54;;;;;;;4.80;4.00;;;;;;;;;;5071829;28;20206;-85
2023/08/05 07:05:22;;;;;;;4.18;3.95;;;;;;;;;;5073229;28;20198;-86
2023/08/05 07:07:49;;;;;;;3.67;3.47;;;;;;;;;;5074523;28;20197;-86
2023/08/05 07:10:15;;;;;;;3.75;3.55;;;;;;;;;;5072409;28;20202;-86
2023/08/05 07:12:44;;;;;;;4.00;3.80;;;;;;;;;;5072156;28;20615;-87
2023/08/05 07:15:11;;;;;;;3.25;3.15;;;;;;;;;;5071054;28;20241;-85
2023/08/05 07:17:38;;;;;;;3.95;3.75;;;;;;;;;;5070841;28;20234;-86
2023/08/05 07:20:06;;;;;;;3.85;3.60;;;;;;;;;;5070781;28;20229;-87
2023/08/05 07:22:32;;;;;;;4.05;3.75;;;;;;;;;;5070806;28;20581;-87
2023/08/05 07:24:59;;;;;;;3.30;3.20;;;;;;;;;;5071726;28;20201;-90
2023/08/05 07:27:26;;;;;;;8.30;4.47;;;;;;;;;;5072321;28;20260;-86
2023/08/05 07:29:55;;;;;;;4.03;3.72;;;;;;;;;;5063812;28;20276;-87
2023/08/05 07:32:22;;;;;;;3.88;3.67;;;;;;;;;;5061812;28;20275;-86
2023/08/05 07:34:53;;;;;;;3.63;3.53;;;;;;;;;;5079143;28;20203;-86
2023/08/05 07:37:20;;;;;;;3.92;3.63;;;;;;;;;;5061413;28;20222;-87
2023/08/05 07:39:48;;;;;;;4.18;3.97;;;;;;;;;;5062151;28;20290;-87
2023/08/05 07:42:15;;;;;;;4.45;4.15;;;;;;;;;;5064196;28;20584;-86
2023/08/05 07:44:42;;;;;;;4.25;3.90;;;;;;;;;;5064935;28;20590;-87
2023/08/05 07:47:11;;;;;;;3.80;3.60;;;;;;;;;;5056621;28;20218;-87
2023/08/05 07:49:39;;;;;;;3.78;3.50;;;;;;;;;;5070574;28;20234;-85
2023/08/05 07:52:07;;;;;;;4.10;3.90;;;;;;;;;;5065217;28;20257;-87
2023/08/05 07:54:35;;;;;;;5.50;3.50;;;;;;;;;;5070481;28;20226;-86
2023/08/05 07:57:01;;;;;;;4.82;4.47;;;;;;;;;;5066185;28;20222;-86
2023/08/05 07:59:30;;;;;;;4.40;4.10;;;;;;;;;;5060289;28;20659;-86
2023/08/05 08:01:57;;;;;;;4.70;4.40;;;;;;;;;;5059990;28;20293;-86
2023/08/05 08:04:27;;;;;;;4.82;4.30;;;;;;;;;;5050205;28;20249;-86
2023/08/05 08:06:54;;;;;;;11.32;4.38;;;;;;;;;;5063470;28;20253;-86
2023/08/05 08:09:20;;;;;;;5.10;4.90;;;;;;;;;;5058081;28;20237;-85
2023/08/05 08:11:48;;;;;;;4.03;3.83;;;;;;;;;;5062179;28;20276;-85
2023/08/05 08:14:15;;;;;;;9.77;4.10;;;;;;;;;;5053917;28;20229;-86
2023/08/05 08:16:42;;;;;;;4.78;4.40;;;;;;;;;;5061871;28;20244;-86
2023/08/05 08:19:10;;;;;;;4.32;4.03;;;;;;;;;;5068614;28;20572;-85
2023/08/05 08:21:38;;;;;;;4.32;4.03;;;;;;;;;;5069114;28;20253;-85
2023/08/05 08:24:07;;;;;;;4.38;4.05;;;;;;;;;;5068235;28;20260;-85
2023/08/05 08:26:34;;;;;;;4.70;4.30;;;;;;;;;;5069794;28;20289;-86
2023/08/05 08:29:01;;;;;;;5.05;4.65;;;;;;;;;;5074266;28;20242;-85
2023/08/05 08:31:31;;;;;;;4.07;3.88;;;;;;;;;;5084091;28;20238;-86
2023/08/05 08:33:58;;;;;;;9.85;4.22;;;;;;;;;;5071246;28;20222;-86
2023/08/05 08:36:25;;;;;;;5.07;4.55;;;;;;;;;;5070827;28;20246;-86
2023/08/05 08:38:52;;;;;;;4.18;3.80;;;;;;;;;;5068784;28;20287;-86
2023/08/05 08:41:19;;;;;;;4.05;3.58;;;;;;;;;;5069940;28;20315;-87
2023/08/05 08:43:48;;;;;;;5.68;4.25;;;;;;;;;;5068941;28;20302;-85
2023/08/05 08:46:15;;;;;;;4.50;4.22;;;;;;;;;;5069118;28;20306;-85
2023/08/05 08:48:43;;;;;;;5.38;4.20;;;;;;;;;;5068931;28;20249;-85
2023/08/05 08:51:10;;;;;;;5.53;4.25;;;;;;;;;;5067206;28;20225;-85
2023/08/05 08:53:40;;;;;;;4.45;4.05;;;;;;;;;;5068595;28;20214;-86
2023/08/05 08:56:08;;;;;;;4.60;4.35;;;;;;;;;;5066159;28;20321;-85
2023/08/05 08:58:36;;;;;;;4.65;4.35;;;;;;;;;;5066108;28;20775;-85
2023/08/05 09:01:08;;;;;;;4.63;4.40;;;;;;;;;;5065706;28;20230;-87
2023/08/05 09:03:35;;;;;;;4.85;4.43;;;;;;;;;;5066556;28;20304;-86
2023/08/05 09:06:03;;;;;;;5.07;4.78;;;;;;;;;;5070298;28;20222;-85
2023/08/05 09:08:31;;;;;;;4.35;4.13;;;;;;;;;;5069315;28;20283;-87
2023/08/05 09:11:00;;;;;;;5.68;4.35;;;;;;;;;;5068866;28;20332;-88
2023/08/05 09:13:29;;;;;;;4.45;4.15;;;;;;;;;;5069541;28;20606;-88
2023/08/05 09:15:56;;;;;;;5.00;4.60;;;;;;;;;;5067743;28;20213;-86
2023/08/05 09:18:25;;;;;;;4.25;3.85;;;;;;;;;;5070295;28;20331;-86
2023/08/05 09:20:52;;;;;;;4.53;4.18;;;;;;;;;;5067574;28;20295;-88
2023/08/05 09:23:19;;;;;;;5.03;4.57;;;;;;;;;;5068467;28;20309;-85
2023/08/05 09:25:47;;;;;;;4.30;4.10;;;;;;;;;;5068306;28;20258;-86
2023/08/05 09:28:14;;;;;;;4.22;4.03;;;;;;;;;;5068025;28;20250;-87
2023/08/05 09:30:46;;;;;;;5.45;5.05;;;;;;;;;;5068724;28;20240;-87
2023/08/05 09:33:14;;;;;;;4.50;4.30;;;;;;;;;;5069344;28;20347;-86
2023/08/05 09:35:41;;;;;;;5.97;4.60;;;;;;;;;;5068310;28;20297;-88
2023/08/05 09:38:11;;;;;;;4.47;4.18;;;;;;;;;;5067226;28;20288;-88
2023/08/05 09:40:42;;;;;;;8.02;4.70;;;;;;;;;;5069665;28;20229;-88
2023/08/05 09:43:10;;;;;;;4.68;4.38;;;;;;;;;;5068337;28;20259;-87
2023/08/05 09:45:38;;;;;;;4.68;4.38;;;;;;;;;;5069972;28;20229;-87
2023/08/05 09:48:15;;;;;;;5.28;4.78;;;;;;;;;;5067510;28;20214;-88
2023/08/05 09:50:43;;;;;;;5.47;5.07;;;;;;;;;;5069322;28;20232;-88
2023/08/05 09:53:14;;;;;;;4.55;4.30;;;;;;;;;;5068005;28;20235;-88
2023/08/05 09:55:43;;;;;;;5.00;4.50;;;;;;;;;;5068691;28;20233;-89
2023/08/05 09:58:13;;;;;;;4.95;4.72;;;;;;;;;;5068388;28;20267;-88
2023/08/05 10:00:41;;;;;;;6.28;4.68;;;;;;;;;;5068043;28;20606;-87
2023/08/05 10:03:13;;;;;;;5.05;4.65;;;;;;;;;;5066449;28;20320;-87
2023/08/05 10:05:43;;;;;;;5.13;4.60;;;;;;;;;;5068156;28;20229;-88
2023/08/05 10:08:11;;;;;;;5.70;5.00;;;;;;;;;;5067842;28;20223;-89
2023/08/05 10:10:38;;;;;;;5.20;4.80;;;;;;;;;;5067641;28;20848;-87
2023/08/05 10:13:16;;;;;;;8.43;4.97;;;;;;;;;;5066434;28;20222;-88
2023/08/05 10:15:44;;;;;;;4.93;4.63;;;;;;;;;;5067651;28;20710;-87
2023/08/05 10:18:12;;;;;;;4.80;4.55;;;;;;;;;;5066396;28;20663;-88
2023/08/05 10:20:39;;;;;;;5.13;4.82;;;;;;;;;;5068340;28;20253;-87
2023/08/05 10:23:13;;;;;;;5.65;5.25;;;;;;;;;;5067401;28;20322;-88
2023/08/05 10:25:41;;;;;;;5.50;5.03;;;;;;;;;;5067021;28;20535;-88
2023/08/05 10:28:08;;;;;;;5.65;5.15;;;;;;;;;;5066868;28;20218;-87
2023/08/05 10:30:41;;;;;;;5.47;5.05;;;;;;;;;;5068703;28;20299;-86
2023/08/05 10:33:08;;;;;;;6.55;4.70;;;;;;;;;;5071574;28;20555;-86
2023/08/05 10:35:39;;;;;;;4.88;4.57;;;;;;;;;;5072596;28;20226;-88
2023/08/05 10:38:12;;;;;;;5.82;4.97;;;;;;;;;;5075060;28;20230;-88
2023/08/05 10:40:38;;;;;;;6.25;4.97;;;;;;;;;;5075965;28;20257;-86
2023/08/05 10:43:05;;;;;;;5.25;4.95;;;;;;;;;;5079843;28;20313;-89
2023/08/05 10:45:33;;;;;;;6.10;5.55;;;;;;;;;;5085117;28;20240;-88
2023/08/05 10:48:00;;;;;;;5.10;4.75;;;;;;;;;;5088643;28;20223;-88
2023/08/05 10:50:36;;;;;;;5.20;4.85;;;;;;;;;;5092471;28;20566;-86
2023/08/05 10:53:12;;;;;;;5.05;4.18;;;;;;;;;;5091529;28;20218;-88
2023/08/05 10:55:46;;;;;;;5.43;4.93;;;;;;;;;;5074731;28;20244;-86
2023/08/05 10:58:13;;;;;;;4.28;4.07;;;;;;;;;;5071824;28;20724;-86
2023/08/05 11:00:41;;;;;;;4.97;4.45;;;;;;;;;;5070411;28;20666;-86
2023/08/05 11:03:24;;;;;;;5.93;5.50;;;;;;;;;;5071723;28;20222;-88
2023/08/05 11:05:51;;;;;;;4.95;4.70;;;;;;;;;;5070741;28;20246;-87
2023/08/05 11:08:21;;;;;;;4.68;4.38;;;;;;;;;;5071825;28;20249;-86
2023/08/05 11:10:48;;;;;;;4.78;4.47;;;;;;;;;;5069853;28;20300;-87
2023/08/05 11:13:16;;;;;;;9.85;5.13;;;;;;;;;;5070754;28;20739;-88
2023/08/05 11:15:43;;;;;;;5.28;4.88;;;;;;;;;;5070443;28;20223;-88
2023/08/05 11:18:09;;;;;;;4.20;3.90;;;;;;;;;;5070088;28;20238;-86
2023/08/05 11:20:39;;;;;;;4.43;4.15;;;;;;;;;;5070970;28;20708;-87
2023/08/05 11:23:06;;;;;;;5.13;4.75;;;;;;;;;;5070647;28;20602;-87
2023/08/05 11:25:37;;;;;;;5.00;4.63;;;;;;;;;;5071250;28;20249;-88
2023/08/05 11:28:12;;;;;;;7.35;4.07;;;;;;;;;;5071373;28;20246;-86
2023/08/05 11:31:05;;;;;;;4.28;3.88;;;;;;;;;;5068689;28;20234;-87
2023/08/05 11:34:05;;;;;;;;;;;;;;;;;;;;;
2023/08/05 11:36:35;;;;;;;5.07;4.68;;;;;;;;;;5053358;28;20666;-86
2023/08/05 11:39:08;;;;;;;8.07;5.10;;;;;;;;;;5057232;28;20235;-88
2023/08/05 11:41:36;;;;;;;4.53;4.32;;;;;;;;;;5061391;28;20226;-87
2023/08/05 11:44:07;;;;;;;5.22;4.72;;;;;;;;;;5059579;28;20196;-85
2023/08/05 11:46:34;;;;;;;3.88;3.58;;;;;;;;;;5063788;28;20259;-89
2023/08/05 11:49:08;;;;;;;4.40;4.20;;;;;;;;;;5059294;28;20207;-85
2023/08/05 11:51:45;;;;;;;4.35;4.10;;;;;;;;;;5054242;28;20211;-88
2023/08/05 11:54:12;;;;;;;5.30;4.88;;;;;;;;;;5054327;28;20254;-86
2023/08/05 11:56:42;;;;;;;8.18;6.72;;;;;;;;;;5053929;28;20652;-87
2023/08/05 11:59:09;;;;;;;5.03;4.68;;;;;;;;;;5055657;28;20294;-88
2023/08/05 12:01:37;;;;;;;4.60;4.30;;;;;;;;;;5054628;28;20211;-86
2023/08/05 12:04:08;;;;;;;5.18;4.78;;;;;;;;;;5055141;28;20345;-86
2023/08/05 12:06:35;;;;;;;5.13;4.72;;;;;;;;;;5056047;28;20200;-87
2023/08/05 12:09:02;;;;;;;4.97;4.50;;;;;;;;;;5057296;28;20576;-89
2023/08/05 12:11:31;;;;;;;7.20;4.70;;;;;;;;;;5053800;28;20225;-87
2023/08/05 12:14:03;;;;;;;5.25;4.95;;;;;;;;;;5051528;28;20652;-87
2023/08/05 12:16:30;;;;;;;4.95;4.53;;;;;;;;;;5054572;28;20267;-87
2023/08/05 12:18:58;;;;;;;5.85;4.40;;;;;;;;;;5052170;28;20255;-86
2023/08/05 12:21:26;;;;;;;4.57;4.38;;;;;;;;;;5051086;28;20212;-88
2023/08/05 12:23:53;;;;;;;4.60;4.30;;;;;;;;;;5049789;28;20722;-86
2023/08/05 12:26:26;;;;;;;5.68;5.18;;;;;;;;;;5050442;28;20762;-86
2023/08/05 12:28:52;;;;;;;5.78;5.25;;;;;;;;;;5051220;28;20271;-86
2023/08/05 12:31:21;;;;;;;5.70;5.18;;;;;;;;;;5049362;28;20211;-86
2023/08/05 12:33:48;;;;;;;5.90;5.40;;;;;;;;;;5050896;28;20664;-86
2023/08/05 12:36:14;;;;;;;5.13;4.82;;;;;;;;;;5050040;28;20207;-85
2023/08/05 12:38:41;;;;;;;4.78;4.47;;;;;;;;;;5050487;28;20227;-86
2023/08/05 12:41:11;;;;;;;4.13;3.92;;;;;;;;;;5050004;28;20674;-86
2023/08/05 12:43:38;;;;;;;4.70;4.40;;;;;;;;;;5050458;28;20214;-87
2023/08/05 12:46:05;;;;;;;5.13;4.78;;;;;;;;;;5049444;28;20289;-86
2023/08/05 12:48:33;;;;;;;5.57;5.18;;;;;;;;;;5051516;28;20245;-86
2023/08/05 12:50:59;;;;;;;5.43;4.93;;;;;;;;;;5050256;28;20199;-87
2023/08/05 12:53:26;;;;;;;4.40;4.20;;;;;;;;;;5050052;28;20214;-86
2023/08/05 12:55:58;;;;;;;5.85;5.38;;;;;;;;;;5049987;28;20199;-86
2023/08/05 12:58:25;;;;;;;6.47;4.70;;;;;;;;;;5049808;28;20309;-86
2023/08/05 13:00:52;;;;;;;5.30;4.72;;;;;;;;;;5049631;28;20712;-86
2023/08/05 13:03:19;;;;;;;4.95;4.65;;;;;;;;;;5049414;28;20200;-87
2023/08/05 13:05:47;;;;;;;5.60;5.13;;;;;;;;;;5049545;28;20197;-85
2023/08/05 13:08:15;;;;;;;4.72;4.43;;;;;;;;;;5049368;28;20223;-86
2023/08/05 13:10:44;;;;;;;6.35;4.18;;;;;;;;;;5049402;28;20307;-86
2023/08/05 13:13:11;;;;;;;4.63;4.32;;;;;;;;;;5049093;28;20302;-88
2023/08/05 13:15:38;;;;;;;4.60;4.30;;;;;;;;;;5049397;28;20214;-86
2023/08/05 13:18:05;;;;;;;5.75;5.07;;;;;;;;;;5048599;28;20297;-86
2023/08/05 13:20:32;;;;;;;5.57;5.00;;;;;;;;;;5049699;28;20249;-87
2023/08/05 13:23:00;;;;;;;6.03;5.60;;;;;;;;;;5048778;28;20283;-86
2023/08/05 13:25:29;;;;;;;5.15;4.85;;;;;;;;;;5049178;28;20228;-87
2023/08/05 13:28:10;;;;;;;4.65;4.35;;;;;;;;;;5049513;28;20203;-86
2023/08/05 13:30:39;;;;;;;4.63;4.32;;;;;;;;;;5049308;28;20616;-86
2023/08/05 13:33:05;;;;;;;4.85;4.57;;;;;;;;;;5049138;28;20306;-87
2023/08/05 13:35:35;;;;;;;5.15;4.75;;;;;;;;;;5049065;28;20441;-86
2023/08/05 13:38:03;;;;;;;5.30;4.93;;;;;;;;;;5048690;28;20570;-87
2023/08/05 13:40:30;;;;;;;5.10;4.70;;;;;;;;;;5049259;28;20211;-86
2023/08/05 13:42:57;;;;;;;4.53;4.18;;;;;;;;;;5049911;28;20211;-88
2023/08/05 13:45:24;;;;;;;4.47;4.07;;;;;;;;;;5048897;28;20282;-88
2023/08/05 13:47:51;;;;;;;4.80;4.40;;;;;;;;;;5049380;28;20213;-88
2023/08/05 13:50:19;;;;;;;3.63;3.33;;;;;;;;;;5049399;28;20558;-87
2023/08/05 13:52:47;;;;;;;4.97;4.55;;;;;;;;;;5048217;28;20207;-87
2023/08/05 13:55:15;;;;;;;4.15;3.85;;;;;;;;;;5050016;28;20210;-87
2023/08/05 13:57:42;;;;;;;3.88;3.67;;;;;;;;;;5049150;28;20206;-88
2023/08/05 14:00:09;;;;;;;7.63;3.47;;;;;;;;;;5049005;28;20211;-88
2023/08/05 14:02:36;;;;;;;4.03;3.83;;;;;;;;;;5049457;28;20204;-87
2023/08/05 14:05:03;;;;;;;3.40;3.20;;;;;;;;;;5049554;28;20563;-87
2023/08/05 14:07:30;;;;;;;4.05;3.75;;;;;;;;;;5048692;28;20215;-90
2023/08/05 14:09:56;;;;;;;3.97;3.75;;;;;;;;;;5055921;28;20344;-86
2023/08/05 14:12:24;;;;;;;4.63;4.22;;;;;;;;;;5053315;28;20223;-87
2023/08/05 14:14:51;;;;;;;3.67;3.38;;;;;;;;;;5048585;28;20596;-88
2023/08/05 14:17:20;;;;;;;4.10;3.80;;;;;;;;;;5049108;28;20195;-87
2023/08/05 14:19:47;;;;;;;3.63;3.42;;;;;;;;;;5049027;28;20238;-87
2023/08/05 14:22:14;;;;;;;3.33;3.22;;;;;;;;;;5048619;28;20199;-88
2023/08/05 14:24:41;;;;;;;4.78;3.70;;;;;;;;;;5049210;28;20250;-87
2023/08/05 14:27:10;;;;;;;3.47;3.28;;;;;;;;;;5049040;28;20239;-87
2023/08/05 14:29:38;;;;;;;7.40;3.17;;;;;;;;;;5048759;28;20234;-88
2023/08/05 14:32:05;;;;;;;3.80;3.60;;;;;;;;;;5049278;28;20273;-87
2023/08/05 14:34:32;;;;;;;4.38;4.07;;;;;;;;;;5048437;28;20287;-87
2023/08/05 14:36:59;;;;;;;3.13;3.03;;;;;;;;;;5048342;28;20207;-88
2023/08/05 14:39:26;;;;;;;3.88;3.58;;;;;;;;;;5049232;28;20250;-88
2023/08/05 14:41:55;;;;;;;3.78;3.58;;;;;;;;;;5048521;28;20200;-88
2023/08/05 14:44:23;;;;;;;3.88;3.67;;;;;;;;;;5049041;28;20195;-88
2023/08/05 14:46:51;;;;;;;3.80;3.35;;;;;;;;;;5049127;28;20262;-87
2023/08/05 14:49:18;;;;;;;3.85;3.55;;;;;;;;;;5049129;28;20258;-87